sensor_id;sensor_type;location;lat;lon;timestamp;P1;durP1;ratioP1;P2;durP2;ratioP2
49458;SDS011;35354;51.296;16.924;2023-09-12T00:02:05;12.52;;;11.23;;
49458;SDS011;35354;51.296;16.924;2023-09-12T00:04:30;13.07;;;11.77;;
49458;SDS011;35354;51.296;16.924;2023-09-12T00:06:56;12.93;;;11.63;;
49458;SDS011;35354;51.296;16.924;2023-09-12T00:09:21;12.98;;;11.77;;
49458;SDS011;35354;51.296;16.924;2023-09-12T00:11:47;14.15;;;12.13;;
49458;SDS011;35354;51.296;16.924;2023-09-12T00:14:15;13.95;;;11.63;;
49458;SDS011;35354;51.296;16.924;2023-09-12T00:16:42;12.57;;;11.23;;
49458;SDS011;35354;51.296;16.924;2023-09-12T00:19:07;15.27;;;12.63;;
49458;SDS011;35354;51.296;16.924;2023-09-12T00:21:32;13.50;;;11.63;;
49458;SDS011;35354;51.296;16.924;2023-09-12T00:23:58;14.70;;;12.70;;
49458;SDS011;35354;51.296;16.924;2023-09-12T00:26:23;13.68;;;12.27;;
49458;SDS011;35354;51.296;16.924;2023-09-12T00:28:48;14.43;;;12.90;;
49458;SDS011;35354;51.296;16.924;2023-09-12T00:31:14;14.32;;;12.52;;
49458;SDS011;35354;51.296;16.924;2023-09-12T00:33:39;14.15;;;12.48;;
49458;SDS011;35354;51.296;16.924;2023-09-12T00:36:05;13.52;;;12.07;;
49458;SDS011;35354;51.296;16.924;2023-09-12T00:38:30;13.57;;;12.23;;
49458;SDS011;35354;51.296;16.924;2023-09-12T00:40:55;13.25;;;11.70;;
49458;SDS011;35354;51.296;16.924;2023-09-12T00:43:20;13.70;;;12.30;;
49458;SDS011;35354;51.296;16.924;2023-09-12T00:45:46;14.98;;;11.88;;
49458;SDS011;35354;51.296;16.924;2023-09-12T00:48:11;13.48;;;12.07;;
49458;SDS011;35354;51.296;16.924;2023-09-12T00:50:38;13.85;;;11.95;;
49458;SDS011;35354;51.296;16.924;2023-09-12T00:53:05;14.35;;;12.85;;
49458;SDS011;35354;51.296;16.924;2023-09-12T00:55:31;17.15;;;13.10;;
49458;SDS011;35354;51.296;16.924;2023-09-12T00:57:59;14.63;;;13.23;;
49458;SDS011;35354;51.296;16.924;2023-09-12T01:00:26;14.00;;;12.57;;
49458;SDS011;35354;51.296;16.924;2023-09-12T01:02:52;15.13;;;12.38;;
49458;SDS011;35354;51.296;16.924;2023-09-12T01:05:19;13.60;;;12.23;;
49458;SDS011;35354;51.296;16.924;2023-09-12T01:07:46;13.60;;;11.90;;
49458;SDS011;35354;51.296;16.924;2023-09-12T01:10:11;13.65;;;12.25;;
49458;SDS011;35354;51.296;16.924;2023-09-12T01:12:37;15.52;;;12.55;;
49458;SDS011;35354;51.296;16.924;2023-09-12T01:15:03;16.15;;;13.93;;
49458;SDS011;35354;51.296;16.924;2023-09-12T01:17:33;15.02;;;12.88;;
49458;SDS011;35354;51.296;16.924;2023-09-12T01:19:58;14.85;;;12.70;;
49458;SDS011;35354;51.296;16.924;2023-09-12T01:28:25;14.88;;;13.15;;
49458;SDS011;35354;51.296;16.924;2023-09-12T01:30:55;15.38;;;13.88;;
49458;SDS011;35354;51.296;16.924;2023-09-12T01:33:22;15.30;;;13.65;;
49458;SDS011;35354;51.296;16.924;2023-09-12T01:35:47;15.40;;;12.73;;
49458;SDS011;35354;51.296;16.924;2023-09-12T01:38:13;16.88;;;13.90;;
49458;SDS011;35354;51.296;16.924;2023-09-12T01:40:43;14.18;;;12.77;;
49458;SDS011;35354;51.296;16.924;2023-09-12T01:43:12;15.45;;;13.23;;
49458;SDS011;35354;51.296;16.924;2023-09-12T01:45:50;15.75;;;13.98;;
49458;SDS011;35354;51.296;16.924;2023-09-12T01:48:19;17.45;;;13.50;;
49458;SDS011;35354;51.296;16.924;2023-09-12T01:50:46;15.57;;;13.43;;
49458;SDS011;35354;51.296;16.924;2023-09-12T01:53:13;17.48;;;14.35;;
49458;SDS011;35354;51.296;16.924;2023-09-12T01:55:41;16.00;;;13.35;;
49458;SDS011;35354;51.296;16.924;2023-09-12T01:58:08;14.38;;;12.98;;
49458;SDS011;35354;51.296;16.924;2023-09-12T02:00:33;15.05;;;13.65;;
49458;SDS011;35354;51.296;16.924;2023-09-12T02:03:01;15.02;;;13.52;;
49458;SDS011;35354;51.296;16.924;2023-09-12T02:05:28;14.80;;;12.85;;
49458;SDS011;35354;51.296;16.924;2023-09-12T02:07:53;15.45;;;13.70;;
49458;SDS011;35354;51.296;16.924;2023-09-12T02:10:19;16.98;;;13.20;;
49458;SDS011;35354;51.296;16.924;2023-09-12T02:12:44;15.40;;;13.80;;
49458;SDS011;35354;51.296;16.924;2023-09-12T02:15:09;15.73;;;13.80;;
49458;SDS011;35354;51.296;16.924;2023-09-12T02:17:35;15.93;;;14.25;;
49458;SDS011;35354;51.296;16.924;2023-09-12T02:20:00;16.17;;;14.48;;
49458;SDS011;35354;51.296;16.924;2023-09-12T02:22:26;15.00;;;13.50;;
49458;SDS011;35354;51.296;16.924;2023-09-12T02:24:51;15.95;;;14.23;;
49458;SDS011;35354;51.296;16.924;2023-09-12T02:27:16;15.00;;;13.43;;
49458;SDS011;35354;51.296;16.924;2023-09-12T02:29:42;17.25;;;13.27;;
49458;SDS011;35354;51.296;16.924;2023-09-12T02:32:07;16.65;;;14.30;;
49458;SDS011;35354;51.296;16.924;2023-09-12T02:34:33;16.55;;;13.40;;
49458;SDS011;35354;51.296;16.924;2023-09-12T02:36:59;16.13;;;14.38;;
49458;SDS011;35354;51.296;16.924;2023-09-12T02:39:25;14.70;;;13.30;;
49458;SDS011;35354;51.296;16.924;2023-09-12T02:41:50;14.75;;;12.98;;
49458;SDS011;35354;51.296;16.924;2023-09-12T02:44:15;16.15;;;14.45;;
49458;SDS011;35354;51.296;16.924;2023-09-12T02:46:41;15.52;;;13.90;;
49458;SDS011;35354;51.296;16.924;2023-09-12T02:49:06;16.35;;;14.38;;
49458;SDS011;35354;51.296;16.924;2023-09-12T02:51:32;18.17;;;16.00;;
49458;SDS011;35354;51.296;16.924;2023-09-12T02:53:57;17.05;;;14.40;;
49458;SDS011;35354;51.296;16.924;2023-09-12T02:56:22;15.98;;;14.25;;
49458;SDS011;35354;51.296;16.924;2023-09-12T02:58:48;16.98;;;15.20;;
49458;SDS011;35354;51.296;16.924;2023-09-12T03:01:18;16.58;;;14.13;;
49458;SDS011;35354;51.296;16.924;2023-09-12T03:03:47;15.80;;;14.18;;
49458;SDS011;35354;51.296;16.924;2023-09-12T03:06:14;18.65;;;15.10;;
49458;SDS011;35354;51.296;16.924;2023-09-12T03:08:40;18.42;;;15.77;;
49458;SDS011;35354;51.296;16.924;2023-09-12T03:11:06;15.73;;;14.00;;
49458;SDS011;35354;51.296;16.924;2023-09-12T03:13:33;17.58;;;15.05;;
49458;SDS011;35354;51.296;16.924;2023-09-12T03:15:59;17.23;;;15.45;;
49458;SDS011;35354;51.296;16.924;2023-09-12T03:18:24;17.92;;;16.02;;
49458;SDS011;35354;51.296;16.924;2023-09-12T03:20:50;16.35;;;14.50;;
49458;SDS011;35354;51.296;16.924;2023-09-12T03:23:15;17.40;;;15.50;;
49458;SDS011;35354;51.296;16.924;2023-09-12T03:25:41;17.48;;;15.15;;
49458;SDS011;35354;51.296;16.924;2023-09-12T03:28:06;16.50;;;14.80;;
49458;SDS011;35354;51.296;16.924;2023-09-12T03:30:32;17.10;;;14.82;;
49458;SDS011;35354;51.296;16.924;2023-09-12T03:32:59;19.48;;;16.95;;
49458;SDS011;35354;51.296;16.924;2023-09-12T03:35:25;18.45;;;16.42;;
49458;SDS011;35354;51.296;16.924;2023-09-12T03:37:50;20.42;;;16.10;;
49458;SDS011;35354;51.296;16.924;2023-09-12T03:40:15;23.33;;;16.85;;
49458;SDS011;35354;51.296;16.924;2023-09-12T03:42:41;18.42;;;16.50;;
49458;SDS011;35354;51.296;16.924;2023-09-12T03:45:06;18.45;;;16.42;;
49458;SDS011;35354;51.296;16.924;2023-09-12T03:47:32;18.90;;;17.00;;
49458;SDS011;35354;51.296;16.924;2023-09-12T03:49:57;18.58;;;16.45;;
49458;SDS011;35354;51.296;16.924;2023-09-12T03:52:23;17.73;;;15.95;;
49458;SDS011;35354;51.296;16.924;2023-09-12T03:54:49;19.73;;;17.00;;
49458;SDS011;35354;51.296;16.924;2023-09-12T03:57:14;21.45;;;17.65;;
49458;SDS011;35354;51.296;16.924;2023-09-12T03:59:39;20.55;;;17.60;;
49458;SDS011;35354;51.296;16.924;2023-09-12T04:02:04;20.55;;;17.80;;
49458;SDS011;35354;51.296;16.924;2023-09-12T04:04:30;19.75;;;17.60;;
49458;SDS011;35354;51.296;16.924;2023-09-12T04:06:55;25.05;;;18.02;;
49458;SDS011;35354;51.296;16.924;2023-09-12T04:09:21;20.63;;;18.48;;
49458;SDS011;35354;51.296;16.924;2023-09-12T04:11:46;20.42;;;17.88;;
49458;SDS011;35354;51.296;16.924;2023-09-12T04:14:12;20.17;;;18.10;;
49458;SDS011;35354;51.296;16.924;2023-09-12T04:16:39;20.90;;;18.70;;
49458;SDS011;35354;51.296;16.924;2023-09-12T04:19:04;20.33;;;17.42;;
49458;SDS011;35354;51.296;16.924;2023-09-12T04:21:30;20.27;;;18.00;;
49458;SDS011;35354;51.296;16.924;2023-09-12T04:23:55;25.38;;;18.73;;
49458;SDS011;35354;51.296;16.924;2023-09-12T04:26:21;20.15;;;18.00;;
49458;SDS011;35354;51.296;16.924;2023-09-12T04:28:46;21.52;;;19.05;;
49458;SDS011;35354;51.296;16.924;2023-09-12T04:31:12;21.38;;;18.65;;
49458;SDS011;35354;51.296;16.924;2023-09-12T04:33:37;20.52;;;18.10;;
49458;SDS011;35354;51.296;16.924;2023-09-12T04:36:03;20.63;;;18.42;;
49458;SDS011;35354;51.296;16.924;2023-09-12T04:38:29;24.67;;;20.00;;
49458;SDS011;35354;51.296;16.924;2023-09-12T04:40:59;21.60;;;19.30;;
49458;SDS011;35354;51.296;16.924;2023-09-12T04:43:31;22.63;;;19.10;;
49458;SDS011;35354;51.296;16.924;2023-09-12T04:45:56;23.95;;;20.65;;
49458;SDS011;35354;51.296;16.924;2023-09-12T04:48:22;20.67;;;18.50;;
49458;SDS011;35354;51.296;16.924;2023-09-12T04:50:47;22.42;;;19.10;;
49458;SDS011;35354;51.296;16.924;2023-09-12T04:53:13;22.38;;;19.10;;
49458;SDS011;35354;51.296;16.924;2023-09-12T04:55:38;21.30;;;19.05;;
49458;SDS011;35354;51.296;16.924;2023-09-12T04:58:04;21.35;;;18.90;;
49458;SDS011;35354;51.296;16.924;2023-09-12T05:00:30;24.48;;;20.08;;
49458;SDS011;35354;51.296;16.924;2023-09-12T05:02:56;21.48;;;19.27;;
49458;SDS011;35354;51.296;16.924;2023-09-12T05:05:21;23.05;;;20.05;;
49458;SDS011;35354;51.296;16.924;2023-09-12T05:07:47;22.80;;;19.40;;
49458;SDS011;35354;51.296;16.924;2023-09-12T05:10:12;23.15;;;20.45;;
49458;SDS011;35354;51.296;16.924;2023-09-12T05:12:38;22.02;;;18.92;;
49458;SDS011;35354;51.296;16.924;2023-09-12T05:15:04;21.80;;;19.50;;
49458;SDS011;35354;51.296;16.924;2023-09-12T05:17:29;21.05;;;18.77;;
49458;SDS011;35354;51.296;16.924;2023-09-12T05:19:55;22.10;;;19.08;;
49458;SDS011;35354;51.296;16.924;2023-09-12T05:22:20;21.80;;;19.60;;
49458;SDS011;35354;51.296;16.924;2023-09-12T05:24:45;23.30;;;20.90;;
49458;SDS011;35354;51.296;16.924;2023-09-12T05:27:11;24.88;;;21.10;;
49458;SDS011;35354;51.296;16.924;2023-09-12T05:29:37;21.98;;;19.40;;
49458;SDS011;35354;51.296;16.924;2023-09-12T05:32:02;23.52;;;21.10;;
49458;SDS011;35354;51.296;16.924;2023-09-12T05:34:29;22.70;;;20.08;;
49458;SDS011;35354;51.296;16.924;2023-09-12T05:36:54;27.73;;;19.65;;
49458;SDS011;35354;51.296;16.924;2023-09-12T05:39:19;21.38;;;19.15;;
49458;SDS011;35354;51.296;16.924;2023-09-12T05:41:45;22.35;;;19.15;;
49458;SDS011;35354;51.296;16.924;2023-09-12T05:44:10;21.63;;;18.52;;
49458;SDS011;35354;51.296;16.924;2023-09-12T05:46:38;21.33;;;19.00;;
49458;SDS011;35354;51.296;16.924;2023-09-12T05:49:03;20.35;;;18.25;;
49458;SDS011;35354;51.296;16.924;2023-09-12T05:51:29;20.75;;;18.50;;
49458;SDS011;35354;51.296;16.924;2023-09-12T05:53:55;21.65;;;18.67;;
49458;SDS011;35354;51.296;16.924;2023-09-12T05:56:20;23.17;;;18.38;;
49458;SDS011;35354;51.296;16.924;2023-09-12T05:58:46;22.05;;;18.42;;
49458;SDS011;35354;51.296;16.924;2023-09-12T06:01:11;18.48;;;16.48;;
49458;SDS011;35354;51.296;16.924;2023-09-12T06:03:36;19.73;;;17.73;;
49458;SDS011;35354;51.296;16.924;2023-09-12T06:06:02;20.17;;;16.95;;
49458;SDS011;35354;51.296;16.924;2023-09-12T06:08:28;19.30;;;16.65;;
49458;SDS011;35354;51.296;16.924;2023-09-12T06:10:53;18.63;;;16.63;;
49458;SDS011;35354;51.296;16.924;2023-09-12T06:13:19;21.50;;;16.80;;
49458;SDS011;35354;51.296;16.924;2023-09-12T06:15:45;19.73;;;17.50;;
49458;SDS011;35354;51.296;16.924;2023-09-12T06:18:10;19.38;;;17.30;;
49458;SDS011;35354;51.296;16.924;2023-09-12T06:20:36;18.23;;;16.42;;
49458;SDS011;35354;51.296;16.924;2023-09-12T06:23:01;18.58;;;16.15;;
49458;SDS011;35354;51.296;16.924;2023-09-12T06:25:28;17.38;;;15.18;;
49458;SDS011;35354;51.296;16.924;2023-09-12T06:27:54;18.92;;;16.88;;
49458;SDS011;35354;51.296;16.924;2023-09-12T06:30:19;18.23;;;15.95;;
49458;SDS011;35354;51.296;16.924;2023-09-12T06:32:45;16.92;;;15.13;;
49458;SDS011;35354;51.296;16.924;2023-09-12T06:35:10;18.95;;;15.52;;
49458;SDS011;35354;51.296;16.924;2023-09-12T06:37:37;17.52;;;15.55;;
49458;SDS011;35354;51.296;16.924;2023-09-12T06:40:03;19.88;;;16.02;;
49458;SDS011;35354;51.296;16.924;2023-09-12T06:42:29;18.25;;;15.95;;
49458;SDS011;35354;51.296;16.924;2023-09-12T06:44:54;17.10;;;15.35;;
49458;SDS011;35354;51.296;16.924;2023-09-12T06:47:20;18.27;;;16.17;;
49458;SDS011;35354;51.296;16.924;2023-09-12T06:49:45;18.05;;;16.17;;
49458;SDS011;35354;51.296;16.924;2023-09-12T06:52:10;16.77;;;15.07;;
49458;SDS011;35354;51.296;16.924;2023-09-12T06:54:36;20.65;;;15.70;;
49458;SDS011;35354;51.296;16.924;2023-09-12T06:57:01;21.33;;;17.13;;
49458;SDS011;35354;51.296;16.924;2023-09-12T06:59:27;17.92;;;14.77;;
49458;SDS011;35354;51.296;16.924;2023-09-12T07:01:52;18.35;;;15.98;;
49458;SDS011;35354;51.296;16.924;2023-09-12T07:04:18;19.92;;;16.67;;
49458;SDS011;35354;51.296;16.924;2023-09-12T07:06:43;18.65;;;15.32;;
49458;SDS011;35354;51.296;16.924;2023-09-12T07:09:08;16.10;;;14.32;;
49458;SDS011;35354;51.296;16.924;2023-09-12T07:11:36;16.70;;;14.80;;
49458;SDS011;35354;51.296;16.924;2023-09-12T07:14:01;16.23;;;14.73;;
49458;SDS011;35354;51.296;16.924;2023-09-12T07:16:28;15.57;;;13.98;;
49458;SDS011;35354;51.296;16.924;2023-09-12T07:18:55;15.07;;;13.60;;
49458;SDS011;35354;51.296;16.924;2023-09-12T07:21:20;15.52;;;13.93;;
49458;SDS011;35354;51.296;16.924;2023-09-12T07:23:47;16.13;;;14.40;;
49458;SDS011;35354;51.296;16.924;2023-09-12T07:26:13;18.15;;;14.55;;
49458;SDS011;35354;51.296;16.924;2023-09-12T07:28:39;16.33;;;13.63;;
49458;SDS011;35354;51.296;16.924;2023-09-12T07:31:05;15.27;;;13.88;;
49458;SDS011;35354;51.296;16.924;2023-09-12T07:33:30;16.27;;;14.70;;
49458;SDS011;35354;51.296;16.924;2023-09-12T07:35:55;14.65;;;13.25;;
49458;SDS011;35354;51.296;16.924;2023-09-12T07:38:21;18.17;;;13.75;;
49458;SDS011;35354;51.296;16.924;2023-09-12T07:40:46;17.02;;;15.05;;
49458;SDS011;35354;51.296;16.924;2023-09-12T07:43:12;15.82;;;13.80;;
49458;SDS011;35354;51.296;16.924;2023-09-12T07:45:37;14.82;;;13.30;;
49458;SDS011;35354;51.296;16.924;2023-09-12T07:48:06;14.95;;;13.40;;
49458;SDS011;35354;51.296;16.924;2023-09-12T07:50:32;14.77;;;12.80;;
49458;SDS011;35354;51.296;16.924;2023-09-12T07:52:58;14.05;;;12.75;;
49458;SDS011;35354;51.296;16.924;2023-09-12T07:55:23;12.48;;;11.35;;
49458;SDS011;35354;51.296;16.924;2023-09-12T07:57:48;13.75;;;12.45;;
49458;SDS011;35354;51.296;16.924;2023-09-12T08:00:14;13.20;;;11.90;;
49458;SDS011;35354;51.296;16.924;2023-09-12T08:02:39;13.23;;;11.93;;
49458;SDS011;35354;51.296;16.924;2023-09-12T08:05:05;13.55;;;12.35;;
49458;SDS011;35354;51.296;16.924;2023-09-12T08:07:31;13.13;;;11.82;;
49458;SDS011;35354;51.296;16.924;2023-09-12T08:09:57;14.48;;;13.07;;
49458;SDS011;35354;51.296;16.924;2023-09-12T08:12:23;13.10;;;11.80;;
49458;SDS011;35354;51.296;16.924;2023-09-12T08:14:53;13.03;;;11.83;;
49458;SDS011;35354;51.296;16.924;2023-09-12T08:17:20;13.05;;;11.85;;
49458;SDS011;35354;51.296;16.924;2023-09-12T08:19:45;13.98;;;12.68;;
49458;SDS011;35354;51.296;16.924;2023-09-12T08:22:11;13.73;;;12.30;;
49458;SDS011;35354;51.296;16.924;2023-09-12T08:24:37;14.07;;;12.80;;
49458;SDS011;35354;51.296;16.924;2023-09-12T08:27:04;13.82;;;12.52;;
49458;SDS011;35354;51.296;16.924;2023-09-12T08:29:31;16.92;;;12.65;;
49458;SDS011;35354;51.296;16.924;2023-09-12T08:31:57;14.52;;;12.80;;
49458;SDS011;35354;51.296;16.924;2023-09-12T08:34:23;14.35;;;12.88;;
49458;SDS011;35354;51.296;16.924;2023-09-12T08:36:48;13.55;;;12.25;;
49458;SDS011;35354;51.296;16.924;2023-09-12T08:39:15;14.02;;;12.05;;
49458;SDS011;35354;51.296;16.924;2023-09-12T08:41:44;13.85;;;12.45;;
49458;SDS011;35354;51.296;16.924;2023-09-12T08:44:11;13.73;;;12.35;;
49458;SDS011;35354;51.296;16.924;2023-09-12T08:46:37;14.48;;;13.07;;
49458;SDS011;35354;51.296;16.924;2023-09-12T08:49:04;13.95;;;12.65;;
49458;SDS011;35354;51.296;16.924;2023-09-12T08:51:31;14.15;;;12.68;;
49458;SDS011;35354;51.296;16.924;2023-09-12T08:53:57;13.77;;;12.57;;
49458;SDS011;35354;51.296;16.924;2023-09-12T08:56:23;14.05;;;12.65;;
49458;SDS011;35354;51.296;16.924;2023-09-12T08:58:49;13.65;;;12.20;;
49458;SDS011;35354;51.296;16.924;2023-09-12T09:01:15;12.63;;;11.50;;
49458;SDS011;35354;51.296;16.924;2023-09-12T09:03:43;13.73;;;12.32;;
49458;SDS011;35354;51.296;16.924;2023-09-12T09:06:10;13.80;;;12.35;;
49458;SDS011;35354;51.296;16.924;2023-09-12T09:08:36;13.57;;;12.38;;
49458;SDS011;35354;51.296;16.924;2023-09-12T09:11:03;13.23;;;11.82;;
49458;SDS011;35354;51.296;16.924;2023-09-12T09:13:29;14.10;;;12.70;;
49458;SDS011;35354;51.296;16.924;2023-09-12T09:16:14;13.63;;;12.20;;
49458;SDS011;35354;51.296;16.924;2023-09-12T10:38:26;13.85;;;12.43;;
49458;SDS011;35354;51.296;16.924;2023-09-12T10:40:55;11.52;;;10.50;;
49458;SDS011;35354;51.296;16.924;2023-09-12T10:43:21;12.07;;;10.82;;
49458;SDS011;35354;51.296;16.924;2023-09-12T10:45:48;11.10;;;10.02;;
49458;SDS011;35354;51.296;16.924;2023-09-12T10:48:14;11.70;;;9.98;;
49458;SDS011;35354;51.296;16.924;2023-09-12T10:50:40;11.10;;;10.10;;
49458;SDS011;35354;51.296;16.924;2023-09-12T10:53:12;13.75;;;10.43;;
49458;SDS011;35354;51.296;16.924;2023-09-12T10:55:39;14.02;;;10.57;;
49458;SDS011;35354;51.296;16.924;2023-09-12T10:58:07;11.98;;;10.88;;
49458;SDS011;35354;51.296;16.924;2023-09-12T11:00:35;13.00;;;10.57;;
49458;SDS011;35354;51.296;16.924;2023-09-12T11:05:53;12.30;;;11.00;;
49458;SDS011;35354;51.296;16.924;2023-09-12T11:08:19;10.00;;;9.07;;
49458;SDS011;35354;51.296;16.924;2023-09-12T11:10:45;12.10;;;10.48;;
49458;SDS011;35354;51.296;16.924;2023-09-12T11:13:46;11.17;;;9.90;;
49458;SDS011;35354;51.296;16.924;2023-09-12T11:16:15;11.50;;;10.40;;
49458;SDS011;35354;51.296;16.924;2023-09-12T11:19:11;11.70;;;10.60;;
49458;SDS011;35354;51.296;16.924;2023-09-12T11:21:36;12.50;;;10.02;;
49458;SDS011;35354;51.296;16.924;2023-09-12T11:24:02;11.52;;;10.43;;
49458;SDS011;35354;51.296;16.924;2023-09-12T11:26:29;10.52;;;9.60;;
49458;SDS011;35354;51.296;16.924;2023-09-12T11:28:54;10.70;;;9.70;;
49458;SDS011;35354;51.296;16.924;2023-09-12T11:31:26;11.73;;;10.63;;
49458;SDS011;35354;51.296;16.924;2023-09-12T11:33:52;10.35;;;9.45;;
49458;SDS011;35354;51.296;16.924;2023-09-12T11:36:18;11.05;;;9.95;;
49458;SDS011;35354;51.296;16.924;2023-09-12T11:38:44;9.80;;;8.80;;
49458;SDS011;35354;51.296;16.924;2023-09-12T11:41:14;10.52;;;9.63;;
49458;SDS011;35354;51.296;16.924;2023-09-12T11:43:39;10.60;;;9.68;;
49458;SDS011;35354;51.296;16.924;2023-09-12T11:46:06;11.98;;;10.27;;
49458;SDS011;35354;51.296;16.924;2023-09-12T11:48:32;14.57;;;9.88;;
49458;SDS011;35354;51.296;16.924;2023-09-12T11:50:58;11.63;;;10.48;;
49458;SDS011;35354;51.296;16.924;2023-09-12T11:53:24;11.18;;;10.05;;
49458;SDS011;35354;51.296;16.924;2023-09-12T11:55:53;12.23;;;10.05;;
49458;SDS011;35354;51.296;16.924;2023-09-12T11:58:19;10.77;;;9.68;;
49458;SDS011;35354;51.296;16.924;2023-09-12T12:03:16;12.50;;;9.80;;
49458;SDS011;35354;51.296;16.924;2023-09-12T12:05:42;12.25;;;10.55;;
49458;SDS011;35354;51.296;16.924;2023-09-12T12:08:08;11.15;;;10.02;;
49458;SDS011;35354;51.296;16.924;2023-09-12T12:10:35;11.77;;;10.68;;
49458;SDS011;35354;51.296;16.924;2023-09-12T12:13:01;11.77;;;10.65;;
49458;SDS011;35354;51.296;16.924;2023-09-12T12:15:29;11.40;;;10.38;;
49458;SDS011;35354;51.296;16.924;2023-09-12T12:17:55;11.60;;;10.50;;
49458;SDS011;35354;51.296;16.924;2023-09-12T12:20:22;10.73;;;9.63;;
49458;SDS011;35354;51.296;16.924;2023-09-12T12:22:48;11.32;;;10.23;;
49458;SDS011;35354;51.296;16.924;2023-09-12T12:25:16;11.98;;;10.73;;
49458;SDS011;35354;51.296;16.924;2023-09-12T12:27:42;11.70;;;10.68;;
49458;SDS011;35354;51.296;16.924;2023-09-12T12:30:08;11.18;;;10.18;;
49458;SDS011;35354;51.296;16.924;2023-09-12T12:32:42;11.52;;;10.35;;
49458;SDS011;35354;51.296;16.924;2023-09-12T12:35:16;11.32;;;9.98;;
49458;SDS011;35354;51.296;16.924;2023-09-12T12:37:43;11.70;;;10.60;;
49458;SDS011;35354;51.296;16.924;2023-09-12T12:40:12;10.88;;;9.93;;
49458;SDS011;35354;51.296;16.924;2023-09-12T12:42:39;11.00;;;10.10;;
49458;SDS011;35354;51.296;16.924;2023-09-12T12:45:20;13.45;;;10.85;;
49458;SDS011;35354;51.296;16.924;2023-09-12T12:50:58;10.85;;;9.75;;
49458;SDS011;35354;51.296;16.924;2023-09-12T12:53:40;12.27;;;10.98;;
49458;SDS011;35354;51.296;16.924;2023-09-12T12:56:07;10.75;;;9.63;;
49458;SDS011;35354;51.296;16.924;2023-09-12T12:58:33;10.38;;;9.50;;
49458;SDS011;35354;51.296;16.924;2023-09-12T13:01:00;10.65;;;9.65;;
49458;SDS011;35354;51.296;16.924;2023-09-12T13:03:25;11.18;;;10.18;;
49458;SDS011;35354;51.296;16.924;2023-09-12T13:05:56;12.27;;;10.45;;
49458;SDS011;35354;51.296;16.924;2023-09-12T13:08:42;10.90;;;9.77;;
49458;SDS011;35354;51.296;16.924;2023-09-12T13:11:09;10.65;;;9.73;;
49458;SDS011;35354;51.296;16.924;2023-09-12T13:13:36;11.77;;;10.52;;
49458;SDS011;35354;51.296;16.924;2023-09-12T13:16:03;11.68;;;10.57;;
49458;SDS011;35354;51.296;16.924;2023-09-12T13:18:30;13.18;;;9.98;;
49458;SDS011;35354;51.296;16.924;2023-09-12T13:21:08;11.07;;;10.07;;
49458;SDS011;35354;51.296;16.924;2023-09-12T13:23:36;12.93;;;9.73;;
49458;SDS011;35354;51.296;16.924;2023-09-12T13:26:02;15.60;;;10.73;;
49458;SDS011;35354;51.296;16.924;2023-09-12T13:28:28;11.55;;;10.45;;
49458;SDS011;35354;51.296;16.924;2023-09-12T13:30:54;11.32;;;10.30;;
49458;SDS011;35354;51.296;16.924;2023-09-12T13:33:20;11.68;;;10.40;;
49458;SDS011;35354;51.296;16.924;2023-09-12T13:35:49;11.43;;;10.30;;
49458;SDS011;35354;51.296;16.924;2023-09-12T13:38:15;11.13;;;10.10;;
49458;SDS011;35354;51.296;16.924;2023-09-12T13:40:42;11.02;;;9.93;;
49458;SDS011;35354;51.296;16.924;2023-09-12T13:43:09;11.10;;;10.10;;
49458;SDS011;35354;51.296;16.924;2023-09-12T13:45:34;11.32;;;10.32;;
49458;SDS011;35354;51.296;16.924;2023-09-12T13:48:01;9.85;;;8.90;;
49458;SDS011;35354;51.296;16.924;2023-09-12T13:50:27;10.88;;;9.88;;
49458;SDS011;35354;51.296;16.924;2023-09-12T13:53:14;10.57;;;9.68;;
49458;SDS011;35354;51.296;16.924;2023-09-12T13:55:39;10.20;;;9.20;;
49458;SDS011;35354;51.296;16.924;2023-09-12T13:58:05;11.63;;;10.45;;
49458;SDS011;35354;51.296;16.924;2023-09-12T14:00:32;11.25;;;10.20;;
49458;SDS011;35354;51.296;16.924;2023-09-12T14:02:59;11.65;;;10.45;;
49458;SDS011;35354;51.296;16.924;2023-09-12T14:05:30;11.45;;;10.38;;
49458;SDS011;35354;51.296;16.924;2023-09-12T14:08:35;11.32;;;10.25;;
49458;SDS011;35354;51.296;16.924;2023-09-12T14:11:01;10.75;;;9.73;;
49458;SDS011;35354;51.296;16.924;2023-09-12T14:13:26;10.32;;;9.50;;
49458;SDS011;35354;51.296;16.924;2023-09-12T14:15:52;10.48;;;9.57;;
49458;SDS011;35354;51.296;16.924;2023-09-12T14:18:17;10.77;;;9.85;;
49458;SDS011;35354;51.296;16.924;2023-09-12T14:20:44;11.18;;;10.18;;
49458;SDS011;35354;51.296;16.924;2023-09-12T14:23:11;10.13;;;9.32;;
49458;SDS011;35354;51.296;16.924;2023-09-12T14:25:36;10.40;;;9.40;;
49458;SDS011;35354;51.296;16.924;2023-09-12T14:28:02;10.88;;;9.88;;
49458;SDS011;35354;51.296;16.924;2023-09-12T14:30:29;10.93;;;9.95;;
49458;SDS011;35354;51.296;16.924;2023-09-12T14:33:58;11.25;;;10.15;;
49458;SDS011;35354;51.296;16.924;2023-09-12T14:36:25;10.25;;;9.32;;
49458;SDS011;35354;51.296;16.924;2023-09-12T14:38:51;10.63;;;9.60;;
49458;SDS011;35354;51.296;16.924;2023-09-12T14:41:16;11.68;;;10.57;;
49458;SDS011;35354;51.296;16.924;2023-09-12T14:43:44;10.20;;;9.30;;
49458;SDS011;35354;51.296;16.924;2023-09-12T14:46:10;10.90;;;9.98;;
49458;SDS011;35354;51.296;16.924;2023-09-12T14:48:48;10.80;;;9.52;;
49458;SDS011;35354;51.296;16.924;2023-09-12T14:51:16;10.13;;;9.13;;
49458;SDS011;35354;51.296;16.924;2023-09-12T14:54:42;9.80;;;8.88;;
49458;SDS011;35354;51.296;16.924;2023-09-12T14:58:11;10.02;;;9.23;;
49458;SDS011;35354;51.296;16.924;2023-09-12T15:05:14;10.77;;;9.68;;
49458;SDS011;35354;51.296;16.924;2023-09-12T15:09:10;10.98;;;9.98;;
49458;SDS011;35354;51.296;16.924;2023-09-12T15:12:18;9.75;;;8.95;;
49458;SDS011;35354;51.296;16.924;2023-09-12T15:14:44;10.52;;;9.63;;
49458;SDS011;35354;51.296;16.924;2023-09-12T15:17:10;9.73;;;8.93;;
49458;SDS011;35354;51.296;16.924;2023-09-12T15:19:35;10.63;;;9.63;;
49458;SDS011;35354;51.296;16.924;2023-09-12T15:22:01;10.70;;;9.68;;
49458;SDS011;35354;51.296;16.924;2023-09-12T15:24:27;10.73;;;9.82;;
49458;SDS011;35354;51.296;16.924;2023-09-12T15:26:52;10.13;;;9.27;;
49458;SDS011;35354;51.296;16.924;2023-09-12T15:29:18;10.40;;;9.43;;
49458;SDS011;35354;51.296;16.924;2023-09-12T15:31:43;10.02;;;9.23;;
49458;SDS011;35354;51.296;16.924;2023-09-12T15:34:08;11.10;;;10.05;;
49458;SDS011;35354;51.296;16.924;2023-09-12T15:37:10;10.95;;;9.95;;
49458;SDS011;35354;51.296;16.924;2023-09-12T15:39:37;11.05;;;9.90;;
49458;SDS011;35354;51.296;16.924;2023-09-12T15:42:03;10.02;;;9.13;;
49458;SDS011;35354;51.296;16.924;2023-09-12T15:44:29;11.80;;;10.70;;
49458;SDS011;35354;51.296;16.924;2023-09-12T15:46:58;11.30;;;10.00;;
49458;SDS011;35354;51.296;16.924;2023-09-12T16:00:47;11.68;;;10.68;;
49458;SDS011;35354;51.296;16.924;2023-09-12T16:04:11;12.23;;;11.02;;
49458;SDS011;35354;51.296;16.924;2023-09-12T16:07:52;11.20;;;10.02;;